sensor_id;sensor_type;location;lat;lon;timestamp;temperature;humidity
52669;DHT22;59898;52.786;6.892;2023-01-24T00:01:20;3.00;99.90
52669;DHT22;59898;52.786;6.892;2023-01-24T00:04:40;3.30;99.90
52669;DHT22;59898;52.786;6.892;2023-01-24T00:08:01;3.00;99.90
52669;DHT22;59898;52.786;6.892;2023-01-24T00:11:22;2.90;99.90
52669;DHT22;59898;52.786;6.892;2023-01-24T00:14:42;3.00;99.90
52669;DHT22;59898;52.786;6.892;2023-01-24T00:18:03;3.10;99.90
52669;DHT22;59898;52.786;6.892;2023-01-24T00:21:24;3.00;99.90
52669;DHT22;59898;52.786;6.892;2023-01-24T00:24:45;3.00;99.90
52669;DHT22;59898;52.786;6.892;2023-01-24T00:28:06;3.50;99.90
52669;DHT22;59898;52.786;6.892;2023-01-24T00:31:27;3.00;99.90
52669;DHT22;59898;52.786;6.892;2023-01-24T00:34:47;3.00;99.90
52669;DHT22;59898;52.786;6.892;2023-01-24T00:38:08;3.20;99.90
52669;DHT22;59898;52.786;6.892;2023-01-24T00:41:29;2.90;99.90
52669;DHT22;59898;52.786;6.892;2023-01-24T00:44:50;3.00;99.90
52669;DHT22;59898;52.786;6.892;2023-01-24T00:48:11;3.20;99.90
52669;DHT22;59898;52.786;6.892;2023-01-24T00:51:32;2.90;99.90
52669;DHT22;59898;52.786;6.892;2023-01-24T00:54:52;2.80;99.90
52669;DHT22;59898;52.786;6.892;2023-01-24T00:58:13;2.90;99.90
52669;DHT22;59898;52.786;6.892;2023-01-24T01:01:34;2.80;99.90
52669;DHT22;59898;52.786;6.892;2023-01-24T01:04:54;2.90;99.90
52669;DHT22;59898;52.786;6.892;2023-01-24T01:08:15;2.90;99.90
52669;DHT22;59898;52.786;6.892;2023-01-24T01:11:37;3.20;99.90
52669;DHT22;59898;52.786;6.892;2023-01-24T01:15:02;2.90;99.90
52669;DHT22;59898;52.786;6.892;2023-01-24T01:18:23;2.90;99.90
52669;DHT22;59898;52.786;6.892;2023-01-24T01:21:43;2.90;99.90
52669;DHT22;59898;52.786;6.892;2023-01-24T01:25:05;2.90;99.90
52669;DHT22;59898;52.786;6.892;2023-01-24T01:28:25;2.90;99.90
52669;DHT22;59898;52.786;6.892;2023-01-24T01:31:46;2.90;99.90
52669;DHT22;59898;52.786;6.892;2023-01-24T01:35:07;2.90;99.90
52669;DHT22;59898;52.786;6.892;2023-01-24T01:38:28;2.90;99.90
52669;DHT22;59898;52.786;6.892;2023-01-24T01:41:49;3.00;99.90
52669;DHT22;59898;52.786;6.892;2023-01-24T01:48:51;2.90;99.90
52669;DHT22;59898;52.786;6.892;2023-01-24T01:52:13;2.90;99.90
52669;DHT22;59898;52.786;6.892;2023-01-24T01:55:36;2.90;99.90
52669;DHT22;59898;52.786;6.892;2023-01-24T01:59:04;3.00;99.90
52669;DHT22;59898;52.786;6.892;2023-01-24T02:02:26;2.90;99.90
52669;DHT22;59898;52.786;6.892;2023-01-24T02:05:47;2.90;99.90
52669;DHT22;59898;52.786;6.892;2023-01-24T02:09:09;2.90;99.90
52669;DHT22;59898;52.786;6.892;2023-01-24T02:12:36;2.90;99.90
52669;DHT22;59898;52.786;6.892;2023-01-24T02:15:58;3.00;99.90
52669;DHT22;59898;52.786;6.892;2023-01-24T02:26:50;3.00;99.90
52669;DHT22;59898;52.786;6.892;2023-01-24T02:30:11;3.00;99.90
52669;DHT22;59898;52.786;6.892;2023-01-24T02:33:32;2.90;99.90
52669;DHT22;59898;52.786;6.892;2023-01-24T02:36:57;3.20;99.90
52669;DHT22;59898;52.786;6.892;2023-01-24T02:40:18;2.90;99.90
52669;DHT22;59898;52.786;6.892;2023-01-24T02:43:42;2.90;99.90
52669;DHT22;59898;52.786;6.892;2023-01-24T02:47:06;2.80;99.90
52669;DHT22;59898;52.786;6.892;2023-01-24T02:50:29;2.80;99.90
52669;DHT22;59898;52.786;6.892;2023-01-24T02:54:09;2.90;99.90
52669;DHT22;59898;52.786;6.892;2023-01-24T02:57:30;3.20;99.90
52669;DHT22;59898;52.786;6.892;2023-01-24T03:01:10;2.90;99.90
52669;DHT22;59898;52.786;6.892;2023-01-24T03:04:31;2.90;99.90
52669;DHT22;59898;52.786;6.892;2023-01-24T03:07:51;2.90;99.90
52669;DHT22;59898;52.786;6.892;2023-01-24T03:11:12;3.00;99.90
52669;DHT22;59898;52.786;6.892;2023-01-24T03:14:33;2.90;99.90
52669;DHT22;59898;52.786;6.892;2023-01-24T03:18:12;2.90;99.90
52669;DHT22;59898;52.786;6.892;2023-01-24T03:21:51;2.90;99.90
52669;DHT22;59898;52.786;6.892;2023-01-24T03:25:31;3.10;99.90
52669;DHT22;59898;52.786;6.892;2023-01-24T03:29:11;3.50;99.90
52669;DHT22;59898;52.786;6.892;2023-01-24T03:32:50;3.00;99.90
52669;DHT22;59898;52.786;6.892;2023-01-24T03:36:29;3.20;99.90
52669;DHT22;59898;52.786;6.892;2023-01-24T03:39:51;2.90;99.90
52669;DHT22;59898;52.786;6.892;2023-01-24T03:43:18;3.10;99.90
52669;DHT22;59898;52.786;6.892;2023-01-24T03:46:39;2.90;99.90
52669;DHT22;59898;52.786;6.892;2023-01-24T03:50:00;2.80;99.90
52669;DHT22;59898;52.786;6.892;2023-01-24T03:53:39;2.80;99.90
52669;DHT22;59898;52.786;6.892;2023-01-24T03:57:00;2.90;99.90
52669;DHT22;59898;52.786;6.892;2023-01-24T04:00:22;2.90;99.90
52669;DHT22;59898;52.786;6.892;2023-01-24T04:03:43;2.90;99.90
52669;DHT22;59898;52.786;6.892;2023-01-24T04:07:04;3.20;99.90
52669;DHT22;59898;52.786;6.892;2023-01-24T04:10:25;3.10;99.90
52669;DHT22;59898;52.786;6.892;2023-01-24T04:13:45;2.80;99.90
52669;DHT22;59898;52.786;6.892;2023-01-24T04:17:06;3.40;99.90
52669;DHT22;59898;52.786;6.892;2023-01-24T04:20:28;2.80;99.90
52669;DHT22;59898;52.786;6.892;2023-01-24T04:23:49;2.80;99.90
52669;DHT22;59898;52.786;6.892;2023-01-24T04:27:10;2.80;99.90
52669;DHT22;59898;52.786;6.892;2023-01-24T04:30:31;2.80;99.90
52669;DHT22;59898;52.786;6.892;2023-01-24T04:33:52;2.70;99.90
52669;DHT22;59898;52.786;6.892;2023-01-24T04:37:13;2.80;99.90
52669;DHT22;59898;52.786;6.892;2023-01-24T04:40:33;3.00;99.90
52669;DHT22;59898;52.786;6.892;2023-01-24T04:43:54;2.80;99.90
52669;DHT22;59898;52.786;6.892;2023-01-24T04:47:15;3.00;99.90
52669;DHT22;59898;52.786;6.892;2023-01-24T04:50:36;2.70;99.90
52669;DHT22;59898;52.786;6.892;2023-01-24T04:53:56;2.70;99.90
52669;DHT22;59898;52.786;6.892;2023-01-24T04:57:17;2.70;99.90
52669;DHT22;59898;52.786;6.892;2023-01-24T05:00:38;2.80;99.90
52669;DHT22;59898;52.786;6.892;2023-01-24T05:03:59;3.00;99.90
52669;DHT22;59898;52.786;6.892;2023-01-24T05:07:19;2.70;99.90
52669;DHT22;59898;52.786;6.892;2023-01-24T05:10:40;2.80;99.90
52669;DHT22;59898;52.786;6.892;2023-01-24T05:14:01;2.80;99.90
52669;DHT22;59898;52.786;6.892;2023-01-24T05:17:21;2.70;99.90
52669;DHT22;59898;52.786;6.892;2023-01-24T05:20:42;2.70;99.90
52669;DHT22;59898;52.786;6.892;2023-01-24T05:24:03;2.70;99.90
52669;DHT22;59898;52.786;6.892;2023-01-24T05:27:24;2.70;99.90
52669;DHT22;59898;52.786;6.892;2023-01-24T05:30:45;2.70;99.90
52669;DHT22;59898;52.786;6.892;2023-01-24T05:34:05;2.70;99.90
52669;DHT22;59898;52.786;6.892;2023-01-24T05:37:26;2.90;99.90
52669;DHT22;59898;52.786;6.892;2023-01-24T05:40:47;2.70;99.90
52669;DHT22;59898;52.786;6.892;2023-01-24T05:44:07;2.70;99.90
52669;DHT22;59898;52.786;6.892;2023-01-24T05:47:28;2.70;99.90
52669;DHT22;59898;52.786;6.892;2023-01-24T05:50:49;3.00;99.90
52669;DHT22;59898;52.786;6.892;2023-01-24T05:54:09;2.70;99.90
52669;DHT22;59898;52.786;6.892;2023-01-24T05:57:30;2.60;99.90
52669;DHT22;59898;52.786;6.892;2023-01-24T06:00:51;2.60;99.90
52669;DHT22;59898;52.786;6.892;2023-01-24T06:04:12;2.90;99.90
52669;DHT22;59898;52.786;6.892;2023-01-24T06:07:33;2.60;99.90
52669;DHT22;59898;52.786;6.892;2023-01-24T06:10:53;2.70;99.90
52669;DHT22;59898;52.786;6.892;2023-01-24T06:14:14;2.60;99.90
52669;DHT22;59898;52.786;6.892;2023-01-24T06:17:35;2.60;99.90
52669;DHT22;59898;52.786;6.892;2023-01-24T06:20:56;2.60;99.90
52669;DHT22;59898;52.786;6.892;2023-01-24T06:24:22;2.60;99.90
52669;DHT22;59898;52.786;6.892;2023-01-24T06:27:44;2.60;99.90
52669;DHT22;59898;52.786;6.892;2023-01-24T06:35:11;2.60;99.90
52669;DHT22;59898;52.786;6.892;2023-01-24T06:38:33;2.50;99.90
52669;DHT22;59898;52.786;6.892;2023-01-24T06:41:54;2.50;99.90
52669;DHT22;59898;52.786;6.892;2023-01-24T06:45:15;2.50;99.90
52669;DHT22;59898;52.786;6.892;2023-01-24T06:48:36;2.90;99.90
52669;DHT22;59898;52.786;6.892;2023-01-24T06:51:57;2.50;99.90
52669;DHT22;59898;52.786;6.892;2023-01-24T06:55:18;2.40;99.90
52669;DHT22;59898;52.786;6.892;2023-01-24T06:58:39;2.40;99.90
52669;DHT22;59898;52.786;6.892;2023-01-24T07:02:00;2.40;99.90
52669;DHT22;59898;52.786;6.892;2023-01-24T07:05:20;2.70;99.90
52669;DHT22;59898;52.786;6.892;2023-01-24T07:08:41;2.40;99.90
52669;DHT22;59898;52.786;6.892;2023-01-24T07:12:02;2.50;99.90
52669;DHT22;59898;52.786;6.892;2023-01-24T07:15:23;2.50;99.90
52669;DHT22;59898;52.786;6.892;2023-01-24T07:18:43;2.90;99.90
52669;DHT22;59898;52.786;6.892;2023-01-24T07:22:04;2.50;99.90
52669;DHT22;59898;52.786;6.892;2023-01-24T07:25:26;2.40;99.90
52669;DHT22;59898;52.786;6.892;2023-01-24T07:28:47;2.50;99.90
52669;DHT22;59898;52.786;6.892;2023-01-24T07:32:09;2.40;99.90
52669;DHT22;59898;52.786;6.892;2023-01-24T07:35:30;2.40;99.90
52669;DHT22;59898;52.786;6.892;2023-01-24T07:38:54;2.90;99.90
52669;DHT22;59898;52.786;6.892;2023-01-24T07:42:15;2.40;99.90
52669;DHT22;59898;52.786;6.892;2023-01-24T07:45:36;2.40;99.90
52669;DHT22;59898;52.786;6.892;2023-01-24T07:48:58;2.50;99.90
52669;DHT22;59898;52.786;6.892;2023-01-24T07:52:19;2.30;99.90
52669;DHT22;59898;52.786;6.892;2023-01-24T07:55:40;2.30;99.90
52669;DHT22;59898;52.786;6.892;2023-01-24T07:59:01;2.30;99.90
52669;DHT22;59898;52.786;6.892;2023-01-24T08:02:21;2.30;99.90
52669;DHT22;59898;52.786;6.892;2023-01-24T08:05:42;2.30;99.90
52669;DHT22;59898;52.786;6.892;2023-01-24T08:09:03;2.30;99.90
52669;DHT22;59898;52.786;6.892;2023-01-24T08:12:23;2.30;99.90
52669;DHT22;59898;52.786;6.892;2023-01-24T08:15:44;2.60;99.90
52669;DHT22;59898;52.786;6.892;2023-01-24T08:19:05;2.40;99.90
52669;DHT22;59898;52.786;6.892;2023-01-24T08:22:26;2.40;99.90
52669;DHT22;59898;52.786;6.892;2023-01-24T08:25:47;2.40;99.90
52669;DHT22;59898;52.786;6.892;2023-01-24T08:29:08;2.40;99.90
52669;DHT22;59898;52.786;6.892;2023-01-24T08:32:28;2.40;99.90
52669;DHT22;59898;52.786;6.892;2023-01-24T08:35:49;1.30;99.90
52669;DHT22;59898;52.786;6.892;2023-01-24T08:39:10;2.60;99.90
52669;DHT22;59898;52.786;6.892;2023-01-24T08:42:30;2.40;99.90
52669;DHT22;59898;52.786;6.892;2023-01-24T08:45:53;2.50;99.90
52669;DHT22;59898;52.786;6.892;2023-01-24T08:49:14;2.50;99.90
52669;DHT22;59898;52.786;6.892;2023-01-24T08:52:35;2.60;99.90
52669;DHT22;59898;52.786;6.892;2023-01-24T08:55:56;2.50;99.90
52669;DHT22;59898;52.786;6.892;2023-01-24T08:59:16;2.40;99.90
52669;DHT22;59898;52.786;6.892;2023-01-24T09:02:37;2.30;99.90
52669;DHT22;59898;52.786;6.892;2023-01-24T09:05:58;2.40;99.90
52669;DHT22;59898;52.786;6.892;2023-01-24T09:09:19;2.50;99.90
52669;DHT22;59898;52.786;6.892;2023-01-24T09:12:40;2.20;99.90
52669;DHT22;59898;52.786;6.892;2023-01-24T09:16:01;2.20;99.90
52669;DHT22;59898;52.786;6.892;2023-01-24T09:19:21;2.10;99.90
52669;DHT22;59898;52.786;6.892;2023-01-24T09:22:44;2.30;99.90
52669;DHT22;59898;52.786;6.892;2023-01-24T09:26:05;2.20;99.90
52669;DHT22;59898;52.786;6.892;2023-01-24T09:29:25;2.30;99.90
52669;DHT22;59898;52.786;6.892;2023-01-24T09:32:46;2.70;99.90
52669;DHT22;59898;52.786;6.892;2023-01-24T09:36:07;2.30;99.90
52669;DHT22;59898;52.786;6.892;2023-01-24T09:39:28;2.20;99.90
52669;DHT22;59898;52.786;6.892;2023-01-24T09:43:06;2.30;99.90
52669;DHT22;59898;52.786;6.892;2023-01-24T09:46:45;2.70;99.90
52669;DHT22;59898;52.786;6.892;2023-01-24T09:50:17;2.30;99.90
52669;DHT22;59898;52.786;6.892;2023-01-24T09:53:45;2.50;99.90
52669;DHT22;59898;52.786;6.892;2023-01-24T09:57:28;2.20;99.90
52669;DHT22;59898;52.786;6.892;2023-01-24T10:00:50;2.30;99.90
52669;DHT22;59898;52.786;6.892;2023-01-24T10:04:36;2.90;99.90
52669;DHT22;59898;52.786;6.892;2023-01-24T10:11:56;2.20;99.90
52669;DHT22;59898;52.786;6.892;2023-01-24T10:15:37;2.20;99.90
52669;DHT22;59898;52.786;6.892;2023-01-24T10:23:03;2.20;99.90
52669;DHT22;59898;52.786;6.892;2023-01-24T10:29:58;2.10;99.90
52669;DHT22;59898;52.786;6.892;2023-01-24T10:33:20;2.10;99.90
52669;DHT22;59898;52.786;6.892;2023-01-24T10:36:46;2.10;99.90
52669;DHT22;59898;52.786;6.892;2023-01-24T10:40:14;2.50;99.90
52669;DHT22;59898;52.786;6.892;2023-01-24T10:43:37;2.10;99.90
52669;DHT22;59898;52.786;6.892;2023-01-24T10:47:17;2.10;99.90
52669;DHT22;59898;52.786;6.892;2023-01-24T10:50:44;2.10;99.90
52669;DHT22;59898;52.786;6.892;2023-01-24T10:54:19;2.50;99.90
52669;DHT22;59898;52.786;6.892;2023-01-24T10:57:52;2.20;99.90
52669;DHT22;59898;52.786;6.892;2023-01-24T11:04:38;2.20;99.90
52669;DHT22;59898;52.786;6.892;2023-01-24T11:08:00;2.20;99.90
52669;DHT22;59898;52.786;6.892;2023-01-24T11:11:24;2.20;99.90
52669;DHT22;59898;52.786;6.892;2023-01-24T11:14:48;2.40;99.90
52669;DHT22;59898;52.786;6.892;2023-01-24T11:18:19;2.40;99.90
52669;DHT22;59898;52.786;6.892;2023-01-24T11:21:51;2.20;99.90
52669;DHT22;59898;52.786;6.892;2023-01-24T11:25:14;2.20;99.90
52669;DHT22;59898;52.786;6.892;2023-01-24T11:28:37;2.20;99.90
52669;DHT22;59898;52.786;6.892;2023-01-24T11:35:34;2.20;99.90
52669;DHT22;59898;52.786;6.892;2023-01-24T11:39:00;2.20;99.90
52669;DHT22;59898;52.786;6.892;2023-01-24T12:06:06;2.30;99.90
52669;DHT22;59898;52.786;6.892;2023-01-24T12:12:43;2.70;99.90
52669;DHT22;59898;52.786;6.892;2023-01-24T12:27:09;2.30;99.90
52669;DHT22;59898;52.786;6.892;2023-01-24T12:30:40;2.20;99.90
52669;DHT22;59898;52.786;6.892;2023-01-24T12:34:23;3.40;99.90
52669;DHT22;59898;52.786;6.892;2023-01-24T12:38:26;2.30;99.90
52669;DHT22;59898;52.786;6.892;2023-01-24T12:42:01;2.30;99.90
52669;DHT22;59898;52.786;6.892;2023-01-24T12:45:31;2.40;99.90
52669;DHT22;59898;52.786;6.892;2023-01-24T12:49:02;2.50;99.90
52669;DHT22;59898;52.786;6.892;2023-01-24T12:56:16;2.40;99.90
52669;DHT22;59898;52.786;6.892;2023-01-24T12:59:39;2.30;99.90
52669;DHT22;59898;52.786;6.892;2023-01-24T13:03:39;2.70;99.90
52669;DHT22;59898;52.786;6.892;2023-01-24T13:07:12;2.30;99.90
52669;DHT22;59898;52.786;6.892;2023-01-24T13:17:51;2.50;99.90
52669;DHT22;59898;52.786;6.892;2023-01-24T13:32:17;2.20;99.90
52669;DHT22;59898;52.786;6.892;2023-01-24T13:35:46;2.10;99.90
52669;DHT22;59898;52.786;6.892;2023-01-24T13:39:31;2.20;99.90
52669;DHT22;59898;52.786;6.892;2023-01-24T13:42:53;2.00;99.90
52669;DHT22;59898;52.786;6.892;2023-01-24T13:46:14;2.00;99.90
52669;DHT22;59898;52.786;6.892;2023-01-24T13:49:38;2.00;99.90
52669;DHT22;59898;52.786;6.892;2023-01-24T13:53:01;2.00;99.90
52669;DHT22;59898;52.786;6.892;2023-01-24T13:56:21;2.10;99.90
52669;DHT22;59898;52.786;6.892;2023-01-24T13:59:56;2.50;99.90
52669;DHT22;59898;52.786;6.892;2023-01-24T14:03:25;2.00;99.90
52669;DHT22;59898;52.786;6.892;2023-01-24T14:06:47;2.00;99.90
52669;DHT22;59898;52.786;6.892;2023-01-24T14:10:11;2.00;99.90
52669;DHT22;59898;52.786;6.892;2023-01-24T14:17:25;2.00;99.90
52669;DHT22;59898;52.786;6.892;2023-01-24T14:20:46;2.00;99.90
52669;DHT22;59898;52.786;6.892;2023-01-24T14:24:24;1.90;99.90
52669;DHT22;59898;52.786;6.892;2023-01-24T14:27:58;1.90;99.90
52669;DHT22;59898;52.786;6.892;2023-01-24T14:31:34;1.90;99.90
52669;DHT22;59898;52.786;6.892;2023-01-24T14:38:29;1.90;99.90
52669;DHT22;59898;52.786;6.892;2023-01-24T14:41:57;1.90;99.90
52669;DHT22;59898;52.786;6.892;2023-01-24T14:45:22;1.90;99.90
52669;DHT22;59898;52.786;6.892;2023-01-24T14:48:44;2.50;99.90
52669;DHT22;59898;52.786;6.892;2023-01-24T14:52:26;2.30;99.90
52669;DHT22;59898;52.786;6.892;2023-01-24T14:55:47;1.90;99.90
52669;DHT22;59898;52.786;6.892;2023-01-24T14:59:12;1.90;99.90
52669;DHT22;59898;52.786;6.892;2023-01-24T15:02:35;2.30;99.90
52669;DHT22;59898;52.786;6.892;2023-01-24T15:06:06;1.90;99.90
52669;DHT22;59898;52.786;6.892;2023-01-24T15:09:27;1.90;99.90
52669;DHT22;59898;52.786;6.892;2023-01-24T15:12:54;2.50;99.90
52669;DHT22;59898;52.786;6.892;2023-01-24T15:16:18;1.90;99.90
52669;DHT22;59898;52.786;6.892;2023-01-24T15:19:39;2.70;99.90
52669;DHT22;59898;52.786;6.892;2023-01-24T15:23:01;1.90;99.90
52669;DHT22;59898;52.786;6.892;2023-01-24T15:30:14;2.20;99.90
52669;DHT22;59898;52.786;6.892;2023-01-24T15:33:42;1.80;99.90
52669;DHT22;59898;52.786;6.892;2023-01-24T15:37:03;2.30;99.90
52669;DHT22;59898;52.786;6.892;2023-01-24T15:40:23;1.80;99.90
52669;DHT22;59898;52.786;6.892;2023-01-24T15:43:55;2.70;99.90
52669;DHT22;59898;52.786;6.892;2023-01-24T15:47:21;1.80;99.90
52669;DHT22;59898;52.786;6.892;2023-01-24T15:51:00;1.80;99.90
52669;DHT22;59898;52.786;6.892;2023-01-24T15:54:27;1.80;99.90
52669;DHT22;59898;52.786;6.892;2023-01-24T15:57:48;2.40;99.90
52669;DHT22;59898;52.786;6.892;2023-01-24T16:01:09;2.10;99.90
52669;DHT22;59898;52.786;6.892;2023-01-24T16:04:30;1.70;99.90
52669;DHT22;59898;52.786;6.892;2023-01-24T16:07:50;1.70;99.90
52669;DHT22;59898;52.786;6.892;2023-01-24T16:11:11;1.70;99.90
52669;DHT22;59898;52.786;6.892;2023-01-24T16:14:32;2.30;99.90
52669;DHT22;59898;52.786;6.892;2023-01-24T16:17:52;1.60;99.90
52669;DHT22;59898;52.786;6.892;2023-01-24T16:21:13;2.40;99.90
52669;DHT22;59898;52.786;6.892;2023-01-24T16:24:34;1.60;99.90
52669;DHT22;59898;52.786;6.892;2023-01-24T16:27:54;1.60;99.90
52669;DHT22;59898;52.786;6.892;2023-01-24T16:31:16;1.90;99.90
52669;DHT22;59898;52.786;6.892;2023-01-24T16:34:36;1.60;99.90
52669;DHT22;59898;52.786;6.892;2023-01-24T16:37:57;2.20;99.90
52669;DHT22;59898;52.786;6.892;2023-01-24T16:41:18;1.70;99.90
52669;DHT22;59898;52.786;6.892;2023-01-24T16:44:38;1.60;99.90
52669;DHT22;59898;52.786;6.892;2023-01-24T16:47:59;1.60;99.90
52669;DHT22;59898;52.786;6.892;2023-01-24T16:51:20;1.60;99.90
52669;DHT22;59898;52.786;6.892;2023-01-24T16:54:41;1.50;99.90
52669;DHT22;59898;52.786;6.892;2023-01-24T16:58:01;1.50;99.90
52669;DHT22;59898;52.786;6.892;2023-01-24T17:01:22;1.70;99.90
52669;DHT22;59898;52.786;6.892;2023-01-24T17:04:43;1.30;99.90
52669;DHT22;59898;52.786;6.892;2023-01-24T17:08:04;2.90;99.90
52669;DHT22;59898;52.786;6.892;2023-01-24T17:11:24;1.40;99.90
52669;DHT22;59898;52.786;6.892;2023-01-24T17:14:45;1.70;99.90
52669;DHT22;59898;52.786;6.892;2023-01-24T17:18:06;1.30;99.90
52669;DHT22;59898;52.786;6.892;2023-01-24T17:21:27;2.50;99.90
52669;DHT22;59898;52.786;6.892;2023-01-24T17:24:47;1.30;99.90
52669;DHT22;59898;52.786;6.892;2023-01-24T17:28:08;1.30;99.90
52669;DHT22;59898;52.786;6.892;2023-01-24T17:31:29;1.30;99.90
52669;DHT22;59898;52.786;6.892;2023-01-24T17:34:49;1.30;99.90
52669;DHT22;59898;52.786;6.892;2023-01-24T17:38:10;1.30;99.90
52669;DHT22;59898;52.786;6.892;2023-01-24T17:41:32;1.40;99.90
52669;DHT22;59898;52.786;6.892;2023-01-24T17:44:52;1.40;99.90
52669;DHT22;59898;52.786;6.892;2023-01-24T17:48:13;1.40;99.90
52669;DHT22;59898;52.786;6.892;2023-01-24T17:51:34;1.30;99.90
52669;DHT22;59898;52.786;6.892;2023-01-24T17:54:56;1.30;99.90
52669;DHT22;59898;52.786;6.892;2023-01-24T17:58:17;1.50;99.90
52669;DHT22;59898;52.786;6.892;2023-01-24T18:01:38;1.30;99.90
52669;DHT22;59898;52.786;6.892;2023-01-24T18:04:59;1.30;99.90
52669;DHT22;59898;52.786;6.892;2023-01-24T18:08:20;1.90;99.90
52669;DHT22;59898;52.786;6.892;2023-01-24T18:11:41;1.30;99.90
52669;DHT22;59898;52.786;6.892;2023-01-24T18:15:02;1.30;99.90
52669;DHT22;59898;52.786;6.892;2023-01-24T18:18:22;1.30;99.90
52669;DHT22;59898;52.786;6.892;2023-01-24T18:21:43;2.50;99.90
52669;DHT22;59898;52.786;6.892;2023-01-24T18:25:04;1.20;99.90
52669;DHT22;59898;52.786;6.892;2023-01-24T18:28:25;1.20;99.90
52669;DHT22;59898;52.786;6.892;2023-01-24T18:31:45;1.30;99.90
52669;DHT22;59898;52.786;6.892;2023-01-24T18:35:07;1.30;99.90
52669;DHT22;59898;52.786;6.892;2023-01-24T18:38:27;1.10;99.90
52669;DHT22;59898;52.786;6.892;2023-01-24T18:41:48;1.10;99.90
52669;DHT22;59898;52.786;6.892;2023-01-24T18:45:09;1.10;99.90
52669;DHT22;59898;52.786;6.892;2023-01-24T18:48:32;1.10;99.90
52669;DHT22;59898;52.786;6.892;2023-01-24T18:51:53;1.10;99.90
52669;DHT22;59898;52.786;6.892;2023-01-24T18:55:14;2.30;99.90
52669;DHT22;59898;52.786;6.892;2023-01-24T18:58:36;1.20;99.90
52669;DHT22;59898;52.786;6.892;2023-01-24T19:01:57;1.20;99.90
52669;DHT22;59898;52.786;6.892;2023-01-24T19:05:18;1.20;99.90
52669;DHT22;59898;52.786;6.892;2023-01-24T19:08:39;1.20;99.90
52669;DHT22;59898;52.786;6.892;2023-01-24T19:12:00;1.70;99.90
52669;DHT22;59898;52.786;6.892;2023-01-24T19:15:21;1.20;99.90
52669;DHT22;59898;52.786;6.892;2023-01-24T19:18:42;1.20;99.90
52669;DHT22;59898;52.786;6.892;2023-01-24T19:22:05;1.30;99.90
52669;DHT22;59898;52.786;6.892;2023-01-24T19:25:29;1.30;99.90
52669;DHT22;59898;52.786;6.892;2023-01-24T19:28:54;0.90;99.90
52669;DHT22;59898;52.786;6.892;2023-01-24T19:32:15;1.20;99.90
52669;DHT22;59898;52.786;6.892;2023-01-24T19:35:36;1.20;99.90
52669;DHT22;59898;52.786;6.892;2023-01-24T19:38:58;1.20;99.90
52669;DHT22;59898;52.786;6.892;2023-01-24T19:42:19;1.20;99.90
52669;DHT22;59898;52.786;6.892;2023-01-24T19:45:40;1.30;99.90
52669;DHT22;59898;52.786;6.892;2023-01-24T19:49:01;1.80;99.90
52669;DHT22;59898;52.786;6.892;2023-01-24T19:52:22;1.20;99.90
52669;DHT22;59898;52.786;6.892;2023-01-24T19:55:42;1.30;99.90
52669;DHT22;59898;52.786;6.892;2023-01-24T19:59:04;1.60;99.90
52669;DHT22;59898;52.786;6.892;2023-01-24T20:02:24;1.20;99.90
52669;DHT22;59898;52.786;6.892;2023-01-24T20:05:45;2.40;99.90
52669;DHT22;59898;52.786;6.892;2023-01-24T20:09:06;1.20;99.90
52669;DHT22;59898;52.786;6.892;2023-01-24T20:12:27;1.20;99.90
52669;DHT22;59898;52.786;6.892;2023-01-24T20:15:47;1.20;99.90
52669;DHT22;59898;52.786;6.892;2023-01-24T20:19:08;1.20;99.90
52669;DHT22;59898;52.786;6.892;2023-01-24T20:22:29;1.20;99.90
52669;DHT22;59898;52.786;6.892;2023-01-24T20:25:50;1.10;99.90
52669;DHT22;59898;52.786;6.892;2023-01-24T20:29:11;1.10;99.90
52669;DHT22;59898;52.786;6.892;2023-01-24T20:32:32;1.80;99.90
52669;DHT22;59898;52.786;6.892;2023-01-24T20:36:01;1.10;99.90
52669;DHT22;59898;52.786;6.892;2023-01-24T20:39:22;1.20;99.90
52669;DHT22;59898;52.786;6.892;2023-01-24T20:42:44;1.90;99.90
52669;DHT22;59898;52.786;6.892;2023-01-24T20:46:26;1.80;99.90
52669;DHT22;59898;52.786;6.892;2023-01-24T20:49:47;1.10;99.90
52669;DHT22;59898;52.786;6.892;2023-01-24T20:53:08;1.30;99.90
52669;DHT22;59898;52.786;6.892;2023-01-24T20:56:29;1.10;99.90
52669;DHT22;59898;52.786;6.892;2023-01-24T20:59:50;1.00;99.90
52669;DHT22;59898;52.786;6.892;2023-01-24T21:03:10;1.00;99.90
52669;DHT22;59898;52.786;6.892;2023-01-24T21:06:35;1.00;99.90
52669;DHT22;59898;52.786;6.892;2023-01-24T21:09:56;1.00;99.90
52669;DHT22;59898;52.786;6.892;2023-01-24T21:13:17;1.90;99.90
52669;DHT22;59898;52.786;6.892;2023-01-24T21:16:38;1.00;99.90
52669;DHT22;59898;52.786;6.892;2023-01-24T21:19:59;1.00;99.90
52669;DHT22;59898;52.786;6.892;2023-01-24T21:23:20;0.90;99.90
52669;DHT22;59898;52.786;6.892;2023-01-24T21:26:42;1.10;99.90
52669;DHT22;59898;52.786;6.892;2023-01-24T21:30:03;0.90;99.90
52669;DHT22;59898;52.786;6.892;2023-01-24T21:33:23;0.90;99.90
52669;DHT22;59898;52.786;6.892;2023-01-24T21:36:44;2.40;99.90
52669;DHT22;59898;52.786;6.892;2023-01-24T21:40:05;2.60;99.90
52669;DHT22;59898;52.786;6.892;2023-01-24T21:43:26;0.90;99.90
52669;DHT22;59898;52.786;6.892;2023-01-24T21:46:47;0.90;99.90
52669;DHT22;59898;52.786;6.892;2023-01-24T21:50:08;1.10;99.90
52669;DHT22;59898;52.786;6.892;2023-01-24T21:53:29;0.90;99.90
52669;DHT22;59898;52.786;6.892;2023-01-24T21:57:09;0.90;99.90
52669;DHT22;59898;52.786;6.892;2023-01-24T22:01:03;1.60;99.90
52669;DHT22;59898;52.786;6.892;2023-01-24T22:04:25;0.90;99.90
52669;DHT22;59898;52.786;6.892;2023-01-24T22:07:46;1.30;99.90
52669;DHT22;59898;52.786;6.892;2023-01-24T22:11:06;2.40;99.90
52669;DHT22;59898;52.786;6.892;2023-01-24T22:14:30;0.90;99.90
52669;DHT22;59898;52.786;6.892;2023-01-24T22:17:52;0.90;99.90
52669;DHT22;59898;52.786;6.892;2023-01-24T22:22:06;0.80;99.90
52669;DHT22;59898;52.786;6.892;2023-01-24T22:28:20;0.80;99.90
52669;DHT22;59898;52.786;6.892;2023-01-24T22:31:41;0.80;99.90
52669;DHT22;59898;52.786;6.892;2023-01-24T22:35:01;0.70;99.90
52669;DHT22;59898;52.786;6.892;2023-01-24T22:38:23;0.60;99.90
52669;DHT22;59898;52.786;6.892;2023-01-24T22:41:46;0.60;99.90
52669;DHT22;59898;52.786;6.892;2023-01-24T22:45:07;1.40;99.90
52669;DHT22;59898;52.786;6.892;2023-01-24T22:48:28;0.60;99.90
52669;DHT22;59898;52.786;6.892;2023-01-24T22:51:48;1.10;99.90
52669;DHT22;59898;52.786;6.892;2023-01-24T22:55:09;1.30;99.90
52669;DHT22;59898;52.786;6.892;2023-01-24T22:58:30;1.20;99.90
52669;DHT22;59898;52.786;6.892;2023-01-24T23:01:51;0.60;99.90
52669;DHT22;59898;52.786;6.892;2023-01-24T23:05:11;1.10;99.90
52669;DHT22;59898;52.786;6.892;2023-01-24T23:08:32;0.60;99.90
52669;DHT22;59898;52.786;6.892;2023-01-24T23:11:53;0.60;99.90
52669;DHT22;59898;52.786;6.892;2023-01-24T23:15:13;0.60;99.90
52669;DHT22;59898;52.786;6.892;2023-01-24T23:18:53;0.50;99.90
52669;DHT22;59898;52.786;6.892;2023-01-24T23:22:34;0.50;99.90
52669;DHT22;59898;52.786;6.892;2023-01-24T23:25:55;1.00;99.90
52669;DHT22;59898;52.786;6.892;2023-01-24T23:29:31;0.80;99.90
52669;DHT22;59898;52.786;6.892;2023-01-24T23:36:20;0.60;99.90